Decoded Metar for CZMT (MASSET in BC, CANADA) (IATA:N/A) | Meteo·Mobile Aviation Weather
aviador You're here:

CZMT Decoded Metar

MASSET in BC, CANADA
Report Time2019-07-22 13:00:00
UTC Time2019-07-22 13:44:59
Flight Rules lifr LIFR
WindCalm
Visibility604 m
Phenomena:Fog
Clouds:Overcast 002 Hf
Ceiling200 ft
Temp10°C (ISA -5)
Dew Point10°C (100% RH)
QNH1016 hPa
Density Alt-502 ft
Elevation26 ft
Report Wrong Elevation
Raw Report
METAR CZMT 221300Z 00000KT 3/8SM FG OVC002 10/10 A3000 RMK FG3ST5 SLP161=

Extra information for CZMT:More info

Metar Taf Metar & Taf Last 4 Metars F.Rules Stats Wind Profile Meteogram Temp Stats Airport Information Weather charts Add Link Nearby VenuesMetar ALERT Operation Metar Decoded Social comments